createdAt,value
2023-02-01T00:01:50.301Z,3.10
2023-02-01T00:04:17.886Z,3.80
2023-02-01T00:06:45.462Z,2.30
2023-02-01T00:09:13.161Z,3.72
2023-02-01T00:11:40.621Z,2.70
2023-02-01T00:14:09.018Z,3.05
2023-02-01T00:16:37.895Z,3.08
2023-02-01T00:19:06.441Z,3.78
2023-02-01T00:21:34.252Z,2.47
2023-02-01T00:24:01.809Z,2.45
2023-02-01T00:26:33.791Z,2.40
2023-02-01T00:29:01.872Z,3.13
2023-02-01T00:31:30.143Z,3.13
2023-02-01T00:33:59.057Z,2.83
2023-02-01T00:36:26.619Z,2.75
2023-02-01T00:38:54.303Z,3.30
2023-02-01T00:41:22.956Z,3.13
2023-02-01T00:43:50.815Z,3.40
2023-02-01T00:46:19.413Z,4.80
2023-02-01T00:48:47.176Z,3.78
2023-02-01T00:51:17.004Z,3.67
2023-02-01T00:53:44.753Z,4.43
2023-02-01T00:56:12.254Z,3.70
2023-02-01T00:58:39.798Z,4.00
2023-02-01T01:01:08.911Z,4.05
2023-02-01T01:03:38.037Z,4.05
2023-02-01T01:06:07.331Z,3.67
2023-02-01T01:08:38.523Z,4.13
2023-02-01T01:11:06.683Z,3.90
2023-02-01T01:13:34.560Z,4.47
2023-02-01T01:16:03.531Z,4.75
2023-02-01T01:18:31.645Z,4.55
2023-02-01T01:20:59.656Z,4.40
2023-02-01T01:23:27.625Z,4.43
2023-02-01T01:25:56.550Z,4.57
2023-02-01T01:28:24.107Z,3.60
2023-02-01T01:30:52.053Z,4.03
2023-02-01T01:33:19.952Z,3.22
2023-02-01T01:35:47.418Z,4.10
2023-02-01T01:38:15.234Z,4.35
2023-02-01T01:40:46.210Z,4.65
2023-02-01T01:43:16.546Z,3.63
2023-02-01T01:45:44.156Z,4.60
2023-02-01T01:48:15.416Z,4.65
2023-02-01T01:50:44.601Z,5.10
2023-02-01T01:53:14.104Z,5.07
2023-02-01T01:55:44.679Z,4.95
2023-02-01T01:58:13.953Z,3.85
2023-02-01T02:00:43.051Z,5.22
2023-02-01T02:03:13.647Z,4.18
2023-02-01T02:05:41.288Z,4.88
2023-02-01T02:08:09.891Z,4.90
2023-02-01T02:10:55.913Z,5.15
2023-02-01T02:13:23.851Z,4.63
2023-02-01T02:15:57.079Z,4.25
2023-02-01T02:18:28.882Z,4.07
2023-02-01T02:21:17.775Z,4.20
2023-02-01T02:24:03.892Z,4.53
2023-02-01T02:26:40.559Z,4.72
2023-02-01T02:29:35.474Z,4.80
2023-02-01T02:32:23.745Z,4.20
2023-02-01T02:34:54.718Z,3.92
2023-02-01T02:37:28.776Z,4.80
2023-02-01T02:39:59.708Z,4.68
2023-02-01T02:42:49.847Z,3.88
2023-02-01T02:45:39.366Z,4.85
2023-02-01T02:48:11.787Z,3.85
2023-02-01T02:51:01.062Z,3.75
2023-02-01T02:53:50.148Z,3.65
2023-02-01T02:56:36.172Z,2.80
2023-02-01T02:59:21.886Z,3.15
2023-02-01T03:02:08.174Z,4.22
2023-02-01T03:04:35.797Z,3.40
2023-02-01T03:07:14.017Z,3.38
2023-02-01T03:09:42.529Z,3.50
2023-02-01T03:12:30.416Z,3.13
2023-02-01T03:15:01.837Z,4.10
2023-02-01T03:17:32.451Z,4.45
2023-02-01T03:20:02.515Z,3.47
2023-02-01T03:22:32.633Z,4.35
2023-02-01T03:25:03.475Z,3.78
2023-02-01T03:27:33.898Z,3.58
2023-02-01T03:30:03.767Z,3.60
2023-02-01T03:32:51.593Z,4.10
2023-02-01T03:35:20.032Z,3.92
2023-02-01T03:37:49.798Z,3.40
2023-02-01T03:40:19.959Z,3.80
2023-02-01T03:42:50.701Z,3.03
2023-02-01T03:45:21.748Z,4.50
2023-02-01T03:47:51.636Z,3.10
2023-02-01T03:50:22.870Z,2.22
2023-02-01T03:52:54.547Z,1.70
2023-02-01T03:55:24.002Z,1.75
2023-02-01T03:57:54.030Z,2.47
2023-02-01T04:00:24.256Z,2.50
2023-02-01T04:02:52.413Z,2.53
2023-02-01T04:05:20.161Z,2.65
2023-02-01T04:07:57.074Z,2.65
2023-02-01T04:10:24.936Z,1.88
2023-02-01T04:12:53.046Z,1.83
2023-02-01T04:15:20.564Z,1.90
2023-02-01T04:17:48.076Z,1.75
2023-02-01T04:20:15.635Z,2.63
2023-02-01T04:22:43.156Z,2.17
2023-02-01T04:25:12.181Z,3.00
2023-02-01T04:30:10.487Z,2.60
2023-02-01T04:32:38.177Z,2.83
2023-02-01T04:35:06.180Z,3.70
2023-02-01T04:37:33.723Z,3.25
2023-02-01T04:40:01.325Z,2.85
2023-02-01T04:42:30.163Z,3.47
2023-02-01T04:44:57.878Z,2.60
2023-02-01T04:47:25.495Z,2.45
2023-02-01T04:49:52.978Z,2.65
2023-02-01T04:52:20.525Z,2.58
2023-02-01T04:54:48.060Z,3.10
2023-02-01T04:57:15.912Z,2.40
2023-02-01T04:59:44.976Z,2.50
2023-02-01T05:02:12.543Z,2.53
2023-02-01T05:04:40.094Z,1.58
2023-02-01T05:07:07.638Z,2.25
2023-02-01T05:09:35.102Z,1.58
2023-02-01T05:12:20.343Z,1.40
2023-02-01T05:14:49.948Z,1.50
2023-02-01T05:17:17.501Z,1.50
2023-02-01T05:19:45.022Z,1.90
2023-02-01T05:22:12.633Z,1.40
2023-02-01T05:24:40.351Z,1.73
2023-02-01T05:27:07.891Z,2.20
2023-02-01T05:29:35.456Z,1.95
2023-02-01T05:32:20.559Z,1.60
2023-02-01T05:34:49.059Z,2.00
2023-02-01T05:37:16.561Z,1.83
2023-02-01T05:39:44.266Z,2.15
2023-02-01T05:42:12.008Z,1.35
2023-02-01T05:44:39.796Z,2.25
2023-02-01T05:47:08.789Z,1.20
2023-02-01T05:49:36.329Z,0.70
2023-02-01T05:52:03.925Z,0.80
2023-02-01T05:54:31.758Z,0.60
2023-02-01T05:56:59.300Z,1.20
2023-02-01T05:59:27.176Z,0.88
2023-02-01T06:01:54.724Z,1.38
2023-02-01T06:04:23.902Z,0.95
2023-02-01T06:06:52.066Z,0.98
2023-02-01T06:09:19.632Z,1.63
2023-02-01T06:11:47.204Z,0.70
2023-02-01T06:14:14.740Z,1.10
2023-02-01T06:16:42.209Z,1.13
2023-02-01T06:19:09.758Z,1.02
2023-02-01T06:21:38.718Z,1.02
2023-02-01T06:24:07.079Z,1.08
2023-02-01T06:26:34.764Z,1.27
2023-02-01T06:29:02.313Z,1.75
2023-02-01T06:31:30.081Z,1.58
2023-02-01T06:33:58.231Z,1.00
2023-02-01T06:36:25.797Z,1.70
2023-02-01T06:38:54.868Z,1.38
2023-02-01T06:41:22.605Z,1.10
2023-02-01T06:43:50.091Z,1.08
2023-02-01T06:46:17.729Z,1.38
2023-02-01T06:48:46.853Z,1.20
2023-02-01T06:51:22.449Z,2.25
2023-02-01T06:53:49.959Z,1.67
2023-02-01T06:56:18.905Z,1.58
2023-02-01T06:58:46.898Z,1.95
2023-02-01T07:01:15.164Z,2.20
2023-02-01T07:03:42.930Z,2.38
2023-02-01T07:06:11.180Z,1.92
2023-02-01T07:08:39.595Z,2.33
2023-02-01T07:11:07.758Z,2.10
2023-02-01T07:13:39.424Z,2.22
2023-02-01T07:16:08.456Z,2.10
2023-02-01T07:18:36.050Z,2.45
2023-02-01T07:21:03.542Z,2.70
2023-02-01T07:23:31.291Z,3.42
2023-02-01T07:25:59.458Z,3.05
2023-02-01T07:28:27.657Z,3.80
2023-02-01T07:30:56.522Z,3.92
2023-02-01T07:33:27.713Z,3.28
2023-02-01T07:35:55.682Z,3.15
2023-02-01T07:38:24.631Z,3.47
2023-02-01T07:40:52.471Z,4.80
2023-02-01T07:43:20.002Z,3.22
2023-02-01T07:45:52.363Z,3.47
2023-02-01T07:48:21.519Z,4.10
2023-02-01T07:50:49.279Z,3.55
2023-02-01T07:53:16.736Z,3.72
2023-02-01T07:55:44.263Z,3.15
2023-02-01T07:58:11.956Z,4.75
2023-02-01T08:00:56.906Z,3.58
2023-02-01T08:03:25.761Z,3.88
2023-02-01T08:05:55.714Z,4.13
2023-02-01T08:08:23.484Z,3.88
2023-02-01T08:10:51.025Z,3.53
2023-02-01T08:13:18.769Z,3.60
2023-02-01T08:15:46.489Z,4.03
2023-02-01T08:18:17.127Z,3.53
2023-02-01T08:20:46.491Z,3.67
2023-02-01T08:23:14.283Z,4.22
2023-02-01T08:25:42.094Z,3.92
2023-02-01T08:28:09.709Z,3.45
2023-02-01T08:30:39.142Z,4.18
2023-02-01T08:33:07.879Z,4.53
2023-02-01T08:35:43.407Z,4.43
2023-02-01T08:38:12.909Z,4.15
2023-02-01T08:40:42.296Z,4.00
2023-02-01T08:43:09.791Z,2.30
2023-02-01T08:45:37.398Z,2.30
2023-02-01T08:48:05.029Z,3.17
2023-02-01T08:50:32.564Z,1.75
2023-02-01T08:53:00.372Z,2.63
2023-02-01T08:55:29.589Z,6.15
2023-02-01T08:57:58.009Z,1.88
2023-02-01T09:00:25.948Z,2.13
2023-02-01T09:02:53.648Z,1.83
2023-02-01T09:05:23.469Z,1.88
2023-02-01T09:07:51.074Z,2.25
2023-02-01T09:10:33.574Z,1.92
2023-02-01T09:13:04.021Z,2.85
2023-02-01T09:15:32.964Z,2.10
2023-02-01T09:18:00.816Z,2.72
2023-02-01T09:20:28.351Z,1.88
2023-02-01T09:22:57.081Z,2.15
2023-02-01T09:25:24.880Z,3.05
2023-02-01T09:27:52.554Z,3.50
2023-02-01T09:30:21.747Z,3.05
2023-02-01T09:32:49.508Z,3.58
2023-02-01T09:35:17.303Z,3.42
2023-02-01T09:37:44.936Z,2.92
2023-02-01T09:40:15.608Z,3.70
2023-02-01T09:42:50.032Z,2.63
2023-02-01T09:45:22.345Z,4.00
2023-02-01T09:47:52.198Z,3.00
2023-02-01T09:50:22.489Z,3.80
2023-02-01T09:52:54.468Z,2.92
2023-02-01T09:55:25.320Z,3.17
2023-02-01T09:57:57.002Z,3.13
2023-02-01T10:00:27.879Z,3.47
2023-02-01T10:02:56.122Z,3.47
2023-02-01T10:05:29.649Z,3.15
2023-02-01T10:08:03.016Z,3.63
2023-02-01T10:10:33.103Z,3.63
2023-02-01T10:13:07.428Z,3.17
2023-02-01T10:15:43.477Z,3.58
2023-02-01T10:18:27.148Z,2.97
2023-02-01T10:20:58.449Z,3.78
2023-02-01T10:23:34.988Z,3.17
2023-02-01T10:26:04.715Z,4.05
2023-02-01T10:28:36.249Z,4.65
2023-02-01T10:31:05.767Z,3.03
2023-02-01T10:33:35.533Z,2.80
2023-02-01T10:36:04.619Z,3.00
2023-02-01T10:38:33.918Z,3.63
2023-02-01T10:41:03.790Z,3.67
2023-02-01T10:43:31.979Z,3.55
2023-02-01T10:45:59.715Z,2.97
2023-02-01T10:48:31.080Z,4.22
2023-02-01T10:51:00.462Z,3.00
2023-02-01T10:53:31.893Z,3.78
2023-02-01T10:55:59.509Z,3.78
2023-02-01T10:58:28.764Z,3.17
2023-02-01T11:00:58.727Z,3.22
2023-02-01T11:03:38.861Z,3.30
2023-02-01T11:06:11.738Z,3.55
2023-02-01T11:08:44.867Z,4.63
2023-02-01T11:11:12.849Z,3.65
2023-02-01T11:13:41.233Z,3.70
2023-02-01T11:16:13.042Z,3.85
2023-02-01T11:18:42.430Z,3.58
2023-02-01T11:21:11.079Z,3.30
2023-02-01T11:23:42.705Z,2.95
2023-02-01T11:26:12.639Z,2.58
2023-02-01T11:28:41.549Z,3.03
2023-02-01T11:31:11.069Z,3.75
2023-02-01T11:33:40.044Z,3.30
2023-02-01T11:36:14.229Z,2.97
2023-02-01T11:38:41.822Z,3.60
2023-02-01T11:41:15.928Z,3.10
2023-02-01T11:43:52.888Z,4.05
2023-02-01T11:46:25.867Z,3.85
2023-02-01T11:48:54.333Z,2.85
2023-02-01T11:51:27.626Z,3.17
2023-02-01T11:54:03.192Z,2.33
2023-02-01T11:56:33.873Z,3.17
2023-02-01T11:59:19.874Z,2.67
2023-02-01T12:01:52.852Z,2.65
2023-02-01T12:04:40.532Z,3.05
2023-02-01T12:07:13.646Z,2.50
2023-02-01T12:09:59.337Z,2.70
2023-02-01T12:12:27.658Z,3.03
2023-02-01T12:15:02.169Z,2.40
2023-02-01T12:17:43.695Z,3.05
2023-02-01T12:20:23.388Z,2.10
2023-02-01T12:22:59.064Z,2.05
2023-02-01T12:25:32.299Z,2.33
2023-02-01T12:28:08.563Z,2.17
2023-02-01T12:30:43.115Z,1.50
2023-02-01T12:33:16.785Z,1.23
2023-02-01T12:35:51.714Z,1.25
2023-02-01T12:38:32.248Z,1.20
2023-02-01T12:41:06.764Z,1.58
2023-02-01T12:43:39.105Z,1.15
2023-02-01T12:46:09.379Z,1.00
2023-02-01T12:48:38.925Z,1.85
2023-02-01T12:51:06.994Z,0.88
2023-02-01T12:53:46.353Z,0.82
2023-02-01T12:56:17.497Z,0.90
2023-02-01T12:58:47.628Z,1.17
2023-02-01T13:01:17.950Z,0.85
2023-02-01T13:03:52.070Z,0.90
2023-02-01T13:06:21.769Z,1.42
2023-02-01T13:08:52.678Z,0.70
2023-02-01T13:11:22.652Z,0.70
2023-02-01T13:13:55.861Z,0.95
2023-02-01T13:16:28.050Z,0.77
2023-02-01T13:18:57.948Z,0.98
2023-02-01T13:21:27.390Z,1.05
2023-02-01T13:23:56.609Z,0.90
2023-02-01T13:26:24.242Z,0.73
2023-02-01T13:28:53.919Z,0.93
2023-02-01T13:31:37.092Z,1.15
2023-02-01T13:34:17.737Z,0.80
2023-02-01T13:36:52.525Z,0.82
2023-02-01T13:39:37.720Z,0.77
2023-02-01T13:42:08.028Z,0.82
2023-02-01T13:44:39.722Z,1.08
2023-02-01T13:47:15.105Z,0.85
2023-02-01T13:49:42.945Z,0.88
2023-02-01T13:52:24.829Z,1.33
2023-02-01T13:55:02.585Z,1.05
2023-02-01T13:57:38.522Z,0.85
2023-02-01T14:00:11.850Z,1.60
2023-02-01T14:02:48.143Z,1.23
2023-02-01T14:05:39.622Z,1.35
2023-02-01T14:08:13.653Z,3.50
2023-02-01T14:10:51.652Z,1.37
2023-02-01T14:13:26.623Z,2.85
2023-02-01T14:16:18.453Z,1.60
2023-02-01T14:19:02.446Z,1.42
2023-02-01T14:21:31.510Z,1.55
2023-02-01T14:24:01.024Z,1.60
2023-02-01T14:26:29.975Z,1.38
2023-02-01T14:29:04.130Z,1.35
2023-02-01T14:31:46.994Z,0.85
2023-02-01T14:34:17.363Z,1.08
2023-02-01T14:36:46.509Z,1.30
2023-02-01T14:39:25.009Z,1.05
2023-02-01T14:41:54.691Z,1.75
2023-02-01T14:44:31.521Z,1.48
2023-02-01T14:47:12.819Z,1.17
2023-02-01T14:49:44.585Z,1.25
2023-02-01T14:52:14.814Z,0.80
2023-02-01T14:54:42.755Z,1.30
2023-02-01T14:57:16.135Z,1.33
2023-02-01T14:59:46.849Z,1.40
2023-02-01T15:02:20.796Z,1.50
2023-02-01T15:04:48.722Z,1.65
2023-02-01T15:07:17.843Z,1.80
2023-02-01T15:09:47.557Z,1.70
2023-02-01T15:12:18.317Z,2.67
2023-02-01T15:14:50.131Z,2.20
2023-02-01T15:17:22.114Z,2.35
2023-02-01T15:19:56.365Z,1.98
2023-02-01T15:22:23.979Z,2.35
2023-02-01T15:24:54.101Z,1.85
2023-02-01T15:27:23.735Z,1.70
2023-02-01T15:29:52.573Z,2.22
2023-02-01T15:32:30.523Z,2.63
2023-02-01T15:34:58.077Z,1.95
2023-02-01T15:37:25.643Z,2.47
2023-02-01T15:40:06.029Z,2.90
2023-02-01T15:42:33.804Z,2.40
2023-02-01T15:45:02.840Z,3.00
2023-02-01T15:47:31.775Z,3.15
2023-02-01T15:50:00.612Z,3.00
2023-02-01T15:52:32.816Z,2.95
2023-02-01T15:55:01.819Z,2.65
2023-02-01T15:57:32.342Z,3.80
2023-02-01T16:00:00.974Z,3.47
2023-02-01T16:02:34.422Z,3.15
2023-02-01T16:05:02.869Z,2.78
2023-02-01T16:07:31.609Z,3.53
2023-02-01T16:10:00.082Z,3.13
2023-02-01T16:12:32.725Z,3.30
2023-02-01T16:15:00.257Z,4.03
2023-02-01T16:17:27.807Z,3.83
2023-02-01T16:19:58.101Z,3.13
2023-02-01T16:22:25.832Z,4.10
2023-02-01T16:24:53.395Z,4.10
2023-02-01T16:27:23.189Z,3.28
2023-02-01T16:29:50.996Z,3.45
2023-02-01T16:32:19.445Z,3.38
2023-02-01T16:34:47.239Z,4.95
2023-02-01T16:37:17.693Z,3.70
2023-02-01T16:39:45.284Z,4.45
2023-02-01T16:42:13.061Z,4.28
2023-02-01T16:44:40.690Z,5.05
2023-02-01T16:47:12.975Z,4.05
2023-02-01T16:49:42.510Z,4.15
2023-02-01T16:52:13.748Z,4.53
2023-02-01T16:54:42.729Z,4.55
2023-02-01T16:57:13.283Z,4.45
2023-02-01T16:59:41.008Z,4.90
2023-02-01T17:02:11.774Z,4.40
2023-02-01T17:04:39.648Z,4.95
2023-02-01T17:07:10.358Z,4.95
2023-02-01T17:09:38.276Z,5.28
2023-02-01T17:12:16.969Z,4.15
2023-02-01T17:14:44.666Z,3.40
2023-02-01T17:17:12.323Z,4.72
2023-02-01T17:19:40.066Z,3.85
2023-02-01T17:22:07.762Z,4.15
2023-02-01T17:24:46.827Z,4.65
2023-02-01T17:27:19.557Z,4.13
2023-02-01T17:29:48.356Z,3.70
2023-02-01T17:32:18.044Z,4.18
2023-02-01T17:34:46.068Z,3.90
2023-02-01T17:37:19.935Z,3.08
2023-02-01T17:39:56.691Z,3.90
2023-02-01T17:42:26.354Z,4.13
2023-02-01T17:44:56.604Z,4.00
2023-02-01T17:47:24.175Z,3.88
2023-02-01T17:49:56.318Z,4.80
2023-02-01T17:52:25.413Z,4.13
2023-02-01T17:54:54.070Z,3.80
2023-02-01T17:57:22.329Z,5.05
2023-02-01T17:59:51.222Z,3.78
2023-02-01T18:02:20.118Z,4.25
2023-02-01T18:04:47.987Z,3.40
2023-02-01T18:07:15.579Z,4.00
2023-02-01T18:09:43.279Z,4.35
2023-02-01T18:12:16.449Z,3.30
2023-02-01T18:14:44.333Z,3.85
2023-02-01T18:17:13.226Z,4.28
2023-02-01T18:19:40.889Z,4.00
2023-02-01T18:22:11.203Z,5.10
2023-02-01T18:24:39.013Z,4.90
2023-02-01T18:27:06.675Z,4.93
2023-02-01T18:29:34.482Z,4.65
2023-02-01T18:32:03.402Z,4.90
2023-02-01T18:34:32.355Z,4.95
2023-02-01T18:37:00.506Z,5.15
2023-02-01T18:39:28.183Z,3.95
2023-02-01T18:41:55.689Z,5.10
2023-02-01T18:44:24.080Z,5.32
2023-02-01T18:46:51.634Z,4.55
2023-02-01T18:49:19.738Z,5.15
2023-02-01T18:51:48.879Z,4.95
2023-02-01T18:54:16.407Z,4.70
2023-02-01T18:56:44.107Z,4.20
2023-02-01T18:59:12.207Z,4.45
2023-02-01T19:01:39.799Z,4.25
2023-02-01T19:04:11.226Z,5.40
2023-02-01T19:06:50.656Z,4.28
2023-02-01T19:09:18.357Z,4.10
2023-02-01T19:11:45.832Z,4.28
2023-02-01T19:14:13.641Z,3.85
2023-02-01T19:16:41.154Z,4.53
2023-02-01T19:19:09.858Z,3.40
2023-02-01T19:21:37.368Z,4.07
2023-02-01T19:24:06.792Z,4.43
2023-02-01T19:26:35.004Z,3.40
2023-02-01T19:29:02.623Z,2.80
2023-02-01T19:31:30.535Z,4.05
2023-02-01T19:33:58.157Z,2.08
2023-02-01T19:36:26.731Z,2.17
2023-02-01T19:38:54.580Z,1.98
2023-02-01T19:41:23.560Z,2.58
2023-02-01T19:43:51.242Z,1.55
2023-02-01T19:46:18.893Z,1.98
2023-02-01T19:48:46.451Z,1.70
2023-02-01T19:51:14.176Z,2.35
2023-02-01T19:53:41.770Z,2.35
2023-02-01T19:56:09.363Z,2.00
2023-02-01T19:58:38.371Z,2.22
2023-02-01T20:01:06.094Z,2.28
2023-02-01T20:03:33.584Z,2.20
2023-02-01T20:06:02.268Z,2.88
2023-02-01T20:08:29.943Z,2.58
2023-02-01T20:10:57.972Z,2.88
2023-02-01T20:13:25.494Z,2.60
2023-02-01T20:15:59.295Z,2.42
2023-02-01T20:18:27.299Z,3.25
2023-02-01T20:20:55.927Z,4.47
2023-02-01T20:23:23.477Z,3.88
2023-02-01T20:25:51.997Z,3.90
2023-02-01T20:28:19.562Z,4.30
2023-02-01T20:30:47.578Z,3.67
2023-02-01T20:33:16.855Z,4.72
2023-02-01T20:35:45.273Z,3.70
2023-02-01T20:38:14.964Z,3.85
2023-02-01T20:40:42.614Z,5.32
2023-02-01T20:43:10.192Z,4.85
2023-02-01T20:45:39.937Z,3.42
2023-02-01T20:48:07.466Z,4.55
2023-02-01T20:50:37.197Z,4.38
2023-02-01T20:53:04.772Z,3.95
2023-02-01T20:55:32.791Z,4.50
2023-02-01T20:58:00.369Z,4.07
2023-02-01T21:00:30.576Z,4.07
2023-02-01T21:02:58.208Z,4.00
2023-02-01T21:05:39.740Z,4.20
2023-02-01T21:08:09.129Z,4.25
2023-02-01T21:10:37.376Z,3.65
2023-02-01T21:13:05.628Z,3.40
2023-02-01T21:15:34.592Z,3.63
2023-02-01T21:18:02.394Z,4.25
2023-02-01T21:20:30.168Z,4.85
2023-02-01T21:22:57.812Z,4.82
2023-02-01T21:25:26.755Z,3.45
2023-02-01T21:27:54.281Z,4.32
2023-02-01T21:30:22.109Z,4.22
2023-02-01T21:32:50.053Z,3.53
2023-02-01T21:35:18.197Z,3.78
2023-02-01T21:37:46.010Z,3.83
2023-02-01T21:40:14.520Z,3.80
2023-02-01T21:42:45.522Z,5.18
2023-02-01T21:45:13.201Z,5.07
2023-02-01T21:47:40.724Z,4.57
2023-02-01T21:50:10.513Z,4.80
2023-02-01T21:52:39.345Z,4.78
2023-02-01T21:55:07.418Z,4.38
2023-02-01T21:57:35.268Z,4.07
2023-02-01T22:00:05.369Z,3.80
2023-02-01T22:02:33.059Z,4.07
2023-02-01T22:05:00.600Z,3.15
2023-02-01T22:07:28.544Z,3.88
2023-02-01T22:09:56.028Z,3.67
2023-02-01T22:12:24.122Z,2.97
2023-02-01T22:14:52.387Z,3.85
2023-02-01T22:17:21.325Z,3.70
2023-02-01T22:19:48.793Z,4.20
2023-02-01T22:22:16.751Z,4.53
2023-02-01T22:24:44.600Z,4.00
2023-02-01T22:27:13.706Z,3.17
2023-02-01T22:29:42.930Z,4.07
2023-02-01T22:32:12.012Z,4.10
2023-02-01T22:34:41.011Z,3.97
2023-02-01T22:37:09.208Z,4.93
2023-02-01T22:39:37.739Z,4.53
2023-02-01T22:42:06.215Z,5.88
2023-02-01T22:44:33.756Z,3.72
2023-02-01T22:47:01.357Z,4.95
2023-02-01T22:49:28.844Z,4.32
2023-02-01T22:51:59.373Z,3.42
2023-02-01T22:54:26.859Z,2.97
2023-02-01T22:56:54.499Z,3.92
2023-02-01T22:59:22.185Z,3.83
2023-02-01T23:01:49.754Z,3.72
2023-02-01T23:04:17.572Z,4.57
2023-02-01T23:06:45.124Z,4.32
2023-02-01T23:09:16.743Z,3.50
2023-02-01T23:11:44.707Z,2.92
2023-02-01T23:14:13.180Z,3.92
2023-02-01T23:16:41.307Z,4.60
2023-02-01T23:19:08.796Z,3.72
2023-02-01T23:21:36.485Z,3.92
2023-02-01T23:24:07.182Z,3.40
2023-02-01T23:26:36.174Z,3.80
2023-02-01T23:29:04.340Z,3.78
2023-02-01T23:31:33.275Z,3.20
2023-02-01T23:34:01.754Z,3.97
2023-02-01T23:36:30.402Z,3.58
2023-02-01T23:38:58.854Z,3.90
2023-02-01T23:41:27.558Z,3.70
2023-02-01T23:43:59.406Z,3.42
2023-02-01T23:46:28.220Z,3.75
2023-02-01T23:48:55.988Z,4.18
2023-02-01T23:51:24.153Z,4.65
2023-02-01T23:53:51.987Z,3.80
2023-02-01T23:56:20.946Z,4.10
2023-02-01T23:58:48.795Z,3.92
